Time;durP1;ratioP1;P1;durP2;ratioP2;P2;SDS_P1;SDS_P2;PMS_P1;PMS_P2;Temp;Humidity;BMP_temperature;BMP_pressure;BME280_temperature;BME280_humidity;BME280_pressure;Samples;Min_cycle;Max_cycle;Signal;HPM_P1;HPM_P2
2023/01/11 00:00:55;;;;;;;1202.37;999.90;;;6.10;99.90;;;;;;5048576;28;20684;-60
2023/01/11 00:03:21;;;;;;;1165.33;999.90;;;6.20;99.90;;;;;;5032787;28;20716;-60
2023/01/11 00:05:47;;;;;;;1154.73;999.90;;;6.30;99.90;;;;;;5050412;28;20471;-61
2023/01/11 00:08:12;;;;;;;1167.15;999.90;;;6.20;99.90;;;;;;5030738;28;20457;-61
2023/01/11 00:10:38;;;;;;;1160.80;999.90;;;6.20;99.90;;;;;;5030679;28;20384;-60
2023/01/11 00:13:04;;;;;;;1153.37;999.90;;;6.20;99.90;;;;;;5030523;28;20385;-61
2023/01/11 00:15:30;;;;;;;1140.47;999.90;;;6.20;99.90;;;;;;5047234;28;20495;-61
2023/01/11 00:17:56;;;;;;;1156.00;999.90;;;6.20;99.90;;;;;;5030060;28;20687;-61
2023/01/11 00:20:22;;;;;;;1138.78;999.90;;;6.30;99.90;;;;;;5029030;28;20400;-61
2023/01/11 00:22:48;;;;;;;1160.00;999.90;;;6.30;99.90;;;;;;5045508;28;20482;-62
2023/01/11 00:25:13;;;;;;;1139.80;999.90;;;6.40;99.90;;;;;;5028227;28;20809;-61
2023/01/11 00:27:39;;;;;;;1143.20;999.90;;;6.40;99.90;;;;;;5028903;28;20606;-61
2023/01/11 00:30:05;;;;;;;1112.95;999.90;;;6.40;99.90;;;;;;5047431;28;20409;-61
2023/01/11 00:32:30;;;;;;;1147.15;999.90;;;6.40;99.90;;;;;;5026454;28;20628;-60
2023/01/11 00:34:56;;;;;;;1160.88;999.90;;;6.40;99.90;;;;;;5028428;28;20386;-61
2023/01/11 00:37:21;;;;;;;1080.43;996.87;;;6.50;99.90;;;;;;5028136;28;20409;-61
2023/01/11 00:39:47;;;;;;;1106.63;999.90;;;6.50;99.90;;;;;;5027883;28;20486;-57
2023/01/11 00:47:56;;;;;;;1154.83;999.90;;;6.50;99.90;;;;;;5046270;28;20732;-59
2023/01/11 00:50:26;;;;;;;1151.78;999.90;;;6.50;99.90;;;;;;5046526;28;20381;-60
2023/01/11 00:52:51;;;;;;;1149.72;999.90;;;6.50;99.90;;;;;;5046203;28;20378;-60
2023/01/11 00:55:17;;;;;;;1157.80;999.90;;;6.50;99.90;;;;;;5046292;28;20654;-59
2023/01/11 00:57:43;;;;;;;1170.38;999.90;;;6.50;99.90;;;;;;5049407;28;20393;-59
2023/01/11 01:00:09;;;;;;;1163.82;999.90;;;6.50;99.90;;;;;;5048235;28;20488;-60
2023/01/11 01:02:34;;;;;;;1148.05;999.90;;;6.50;99.90;;;;;;5046440;28;20390;-58
2023/01/11 01:05:00;;;;;;;1147.75;999.90;;;6.60;99.90;;;;;;5047856;28;20514;-60
2023/01/11 01:07:26;;;;;;;1138.57;999.90;;;6.50;99.90;;;;;;5047434;28;20537;-57
2023/01/11 01:09:51;;;;;;;1143.07;999.90;;;6.50;99.90;;;;;;5049162;28;20412;-60
2023/01/11 01:14:24;;;;;;;1141.57;999.90;;;6.50;99.90;;;;;;5051255;28;20381;-61
2023/01/11 01:15:03;;;;;;;1156.70;999.90;;;6.50;99.90;;;;;;5051091;28;20488;-61
2023/01/11 01:17:28;;;;;;;1192.50;999.90;;;6.50;99.90;;;;;;5049786;28;20448;-60
2023/01/11 01:19:54;;;;;;;1193.53;999.90;;;6.50;99.90;;;;;;5049764;28;20438;-59
2023/01/11 01:22:19;;;;;;;1206.50;999.90;;;6.50;99.90;;;;;;5050351;28;20401;-60
2023/01/11 01:24:45;;;;;;;1205.33;999.90;;;6.50;99.90;;;;;;5050657;28;20563;-60
2023/01/11 01:27:15;;;;;;;1222.13;999.90;;;6.50;99.90;;;;;;5047964;28;20437;-61
2023/01/11 01:29:41;;;;;;;1198.97;999.90;;;6.50;99.90;;;;;;5049046;28;20393;-61
2023/01/11 01:32:06;;;;;;;1211.67;999.90;;;6.50;99.90;;;;;;5048939;28;20378;-61
2023/01/11 01:34:36;;;;;;;1213.67;999.90;;;6.60;99.90;;;;;;5049201;28;20400;-59
2023/01/11 01:37:05;;;;;;;1180.45;999.90;;;6.60;99.90;;;;;;5048738;28;20774;-60
2023/01/11 01:39:31;;;;;;;1144.88;999.90;;;6.50;99.90;;;;;;5047887;28;20831;-60
2023/01/11 01:41:57;;;;;;;1184.25;999.90;;;6.50;99.90;;;;;;5047509;28;20405;-60
2023/01/11 01:45:18;;;;;;;1181.80;999.90;;;6.50;99.90;;;;;;5048686;28;20844;-60
2023/01/11 01:47:53;;;;;;;1214.47;999.90;;;6.50;99.90;;;;;;4986043;28;20683;-59
2023/01/11 01:50:28;;;;;;;1207.22;999.90;;;6.60;99.90;;;;;;5034901;28;20493;-60
2023/01/11 01:53:00;;;;;;;1209.00;999.90;;;6.60;99.90;;;;;;5047329;28;20435;-58
2023/01/11 01:55:29;;;;;;;1208.00;999.90;;;6.60;99.90;;;;;;5048515;28;20476;-60
2023/01/11 01:57:57;;;;;;;1212.07;999.90;;;6.60;99.90;;;;;;5049894;28;20428;-58
2023/01/11 02:00:23;;;;;;;1206.53;999.90;;;6.60;99.90;;;;;;5050705;28;20396;-60
2023/01/11 02:02:49;;;;;;;1202.63;999.90;;;6.60;99.90;;;;;;5050538;28;20614;-60
2023/01/11 02:05:16;;;;;;;1183.75;999.90;;;6.60;99.90;;;;;;5049817;28;20385;-60
2023/01/11 02:07:43;;;;;;;1181.97;999.90;;;6.60;99.90;;;;;;5049606;28;20421;-60
2023/01/11 02:10:20;;;;;;;1188.40;999.90;;;6.60;99.90;;;;;;5048883;28;20389;-60
2023/01/11 02:12:51;;;;;;;1192.10;999.90;;;6.70;99.90;;;;;;5049272;28;20417;-60
2023/01/11 02:15:19;;;;;;;1187.78;999.90;;;6.70;99.90;;;;;;5049045;28;20381;-60
2023/01/11 02:17:44;;;;;;;1180.22;999.90;;;6.70;99.90;;;;;;5051754;28;20389;-59
2023/01/11 02:20:17;;;;;;;1201.50;999.90;;;6.70;99.90;;;;;;5051312;28;20385;-60
2023/01/11 02:23:07;;;;;;;1207.30;999.90;;;6.70;99.90;;;;;;5050786;28;20879;-60
2023/01/11 02:25:58;;;;;;;1233.28;999.90;;;6.70;99.90;;;;;;5052162;28;20511;-60
2023/01/11 02:29:04;;;;;;;1225.55;999.90;;;6.70;99.90;;;;;;5050855;28;20547;-58
2023/01/11 02:31:47;;;;;;;1213.85;999.90;;;6.70;99.90;;;;;;5018783;28;20793;-55
2023/01/11 02:34:36;;;;;;;1219.43;999.90;;;6.80;99.90;;;;;;5048361;28;20532;-59
2023/01/11 02:37:23;;;;;;;1199.07;999.90;;;6.80;99.90;;;;;;5051710;28;20549;-58
2023/01/11 02:40:09;;;;;;;1219.57;999.90;;;6.80;99.90;;;;;;5053120;28;20373;-58
2023/01/11 02:46:04;;;;;;;1163.18;999.90;;;6.80;99.90;;;;;;5050095;28;20471;-60
2023/01/11 02:48:38;;;;;;;1096.30;999.90;;;6.90;99.90;;;;;;5051468;28;20450;-58
2023/01/11 02:51:12;;;;;;;1118.65;999.90;;;6.90;99.90;;;;;;5051252;28;20389;-60
2023/01/11 02:53:42;;;;;;;1117.43;999.90;;;6.90;99.90;;;;;;5052842;28;20377;-60
2023/01/11 02:56:17;;;;;;;1108.68;999.90;;;6.90;99.90;;;;;;5051624;28;20378;-59
2023/01/11 02:58:46;;;;;;;1103.72;999.90;;;7.00;99.90;;;;;;5053074;28;20450;-58
2023/01/11 03:01:13;;;;;;;1116.43;999.90;;;7.00;99.90;;;;;;5052724;28;20381;-59
2023/01/11 03:03:39;;;;;;;1083.68;996.88;;;7.00;99.90;;;;;;5053121;28;20385;-59
2023/01/11 03:06:19;;;;;;;1062.47;976.40;;;7.10;99.90;;;;;;5053709;28;20421;-60
2023/01/11 03:09:15;;;;;;;1067.63;982.20;;;7.10;99.90;;;;;;5054280;28;20413;-57
2023/01/11 03:15:54;;;;;;;1067.75;984.20;;;7.20;99.90;;;;;;5052983;28;20912;-60
2023/01/11 03:18:43;;;;;;;1092.75;999.90;;;7.20;99.90;;;;;;4946221;28;20618;-60
2023/01/11 03:21:27;;;;;;;1072.43;988.97;;;7.20;99.90;;;;;;5051565;28;20800;-59
2023/01/11 03:24:29;;;;;;;1081.13;996.55;;;7.30;99.90;;;;;;5048859;28;20785;-60
2023/01/11 03:27:16;;;;;;;1056.83;975.57;;;7.30;99.90;;;;;;5034936;28;20433;-60
2023/01/11 03:29:53;;;;;;;1069.88;985.00;;;7.30;99.90;;;;;;5051915;28;20762;-59
2023/01/11 03:32:44;;;;;;;1103.20;999.90;;;7.30;99.90;;;;;;5052582;28;20397;-60
2023/01/11 03:35:18;;;;;;;1095.82;999.90;;;7.30;99.90;;;;;;5041673;28;20417;-59
2023/01/11 03:38:05;;;;;;;1134.30;999.90;;;7.30;99.90;;;;;;5054158;28;20860;-59
2023/01/11 03:40:41;;;;;;;1128.95;999.90;;;7.30;99.90;;;;;;5054149;28;20476;-61
2023/01/11 03:43:10;;;;;;;1129.53;999.90;;;7.30;99.90;;;;;;5052288;28;20478;-59
2023/01/11 03:45:47;;;;;;;1137.90;999.90;;;7.30;99.90;;;;;;5054245;28;20491;-59
2023/01/11 03:48:18;;;;;;;1118.53;999.90;;;7.40;99.90;;;;;;5054491;28;20397;-60
2023/01/11 03:50:46;;;;;;;1130.32;999.90;;;7.40;99.90;;;;;;5052495;28;20400;-60
2023/01/11 03:53:14;;;;;;;1164.95;999.90;;;7.40;99.90;;;;;;5051793;28;20362;-59
2023/01/11 03:55:43;;;;;;;1160.70;999.90;;;7.40;99.90;;;;;;5051047;28;20384;-59
2023/01/11 03:58:09;;;;;;;1151.15;999.90;;;7.40;99.90;;;;;;5053268;28;20472;-60
2023/01/11 04:00:36;;;;;;;1148.03;999.90;;;7.30;99.90;;;;;;5052381;28;20472;-60
2023/01/11 04:03:02;;;;;;;1151.07;999.90;;;7.40;99.90;;;;;;5051679;28;20822;-58
2023/01/11 04:05:28;;;;;;;1152.28;999.90;;;7.40;99.90;;;;;;5051644;28;20737;-58
2023/01/11 04:08:24;;;;;;;1159.13;999.90;;;7.40;99.90;;;;;;5053748;28;20825;-57
2023/01/11 04:10:50;;;;;;;1142.60;999.90;;;7.40;99.90;;;;;;5052466;28;20819;-60
2023/01/11 04:13:16;;;;;;;1149.10;999.90;;;7.40;99.90;;;;;;5051027;28;20413;-60
2023/01/11 04:15:41;;;;;;;1142.40;999.90;;;7.40;99.90;;;;;;5049163;28;20409;-60
2023/01/11 04:18:07;;;;;;;1161.57;999.90;;;7.40;99.90;;;;;;5050703;28;20456;-58
2023/01/11 04:20:34;;;;;;;1149.47;999.90;;;7.40;99.90;;;;;;5049631;28;20689;-60
2023/01/11 04:23:00;;;;;;;1168.47;999.90;;;7.40;99.90;;;;;;5049867;28;20389;-59
2023/01/11 04:25:26;;;;;;;1154.40;999.90;;;7.40;99.90;;;;;;5050074;28;20487;-60
2023/01/11 04:27:52;;;;;;;1154.20;999.90;;;7.40;99.90;;;;;;5050597;28;20474;-60
2023/01/11 04:30:17;;;;;;;1143.77;999.90;;;7.40;99.90;;;;;;5051797;28;20813;-59
2023/01/11 04:32:43;;;;;;;1127.43;999.90;;;7.40;99.90;;;;;;5050822;28;20389;-60
2023/01/11 04:35:08;;;;;;;1140.65;999.90;;;7.50;99.90;;;;;;5050855;28;20398;-60
2023/01/11 04:37:34;;;;;;;1141.73;999.90;;;7.50;99.90;;;;;;5050833;28;20875;-60
2023/01/11 04:39:59;;;;;;;1166.40;999.90;;;7.50;99.90;;;;;;5052041;28;20412;-59
2023/01/11 04:42:25;;;;;;;1160.40;999.90;;;7.50;99.90;;;;;;5052686;28;20439;-58
2023/01/11 04:44:51;;;;;;;1169.40;999.90;;;7.60;99.90;;;;;;5052124;28;20385;-57
2023/01/11 04:47:19;;;;;;;1151.65;999.90;;;7.60;99.90;;;;;;5051241;28;20721;-60
2023/01/11 04:49:45;;;;;;;1159.40;999.90;;;7.60;99.90;;;;;;5051727;28;20435;-60
2023/01/11 04:52:12;;;;;;;1167.38;999.90;;;7.60;99.90;;;;;;5050983;28;20966;-60
2023/01/11 04:54:38;;;;;;;1146.15;999.90;;;7.60;99.90;;;;;;5050826;28;20797;-57
2023/01/11 04:57:04;;;;;;;1147.68;999.90;;;7.60;99.90;;;;;;5050613;28;20401;-59
2023/01/11 04:59:30;;;;;;;1166.68;999.90;;;7.70;99.90;;;;;;5051455;28;20424;-59
2023/01/11 05:01:56;;;;;;;1151.45;999.90;;;7.70;99.90;;;;;;5051354;28;20393;-56
2023/01/11 05:04:21;;;;;;;1161.15;999.90;;;7.70;99.90;;;;;;5051184;28;20724;-57
2023/01/11 05:06:47;;;;;;;1153.93;999.90;;;7.70;99.90;;;;;;5050093;28;20696;-60
2023/01/11 05:09:14;;;;;;;1164.77;999.90;;;7.70;99.90;;;;;;5049863;28;20393;-58
2023/01/11 05:11:40;;;;;;;1158.47;999.90;;;7.70;99.90;;;;;;5050175;28;20761;-59
2023/01/11 05:14:05;;;;;;;1168.88;999.90;;;7.70;99.90;;;;;;5048144;28;20872;-59
2023/01/11 05:16:31;;;;;;;1149.23;999.90;;;7.70;99.90;;;;;;5047278;28;20469;-60
2023/01/11 05:18:58;;;;;;;1157.23;999.90;;;7.80;99.90;;;;;;5046750;28;20478;-59
2023/01/11 05:21:28;;;;;;;1191.70;999.90;;;7.80;99.90;;;;;;5046517;28;20723;-58
2023/01/11 05:23:54;;;;;;;1176.03;999.90;;;7.80;99.90;;;;;;5045183;28;20386;-60
2023/01/11 05:26:26;;;;;;;1177.20;999.90;;;7.90;99.90;;;;;;5047245;28;20472;-59
2023/01/11 05:28:55;;;;;;;1154.30;999.90;;;7.90;99.90;;;;;;5048098;28;20382;-59
2023/01/11 05:31:21;;;;;;;1176.82;999.90;;;7.90;99.90;;;;;;5048858;28;20428;-60
2023/01/11 05:33:47;;;;;;;1197.72;999.90;;;7.90;99.90;;;;;;5049085;28;20848;-61
2023/01/11 05:36:18;;;;;;;1171.88;999.90;;;8.00;99.90;;;;;;5048450;28;20389;-59
2023/01/11 05:38:48;;;;;;;1160.93;999.90;;;8.00;99.90;;;;;;5046393;28;20604;-60
2023/01/11 05:41:14;;;;;;;1185.55;999.90;;;8.00;99.90;;;;;;5047672;28;20430;-61
2023/01/11 05:46:27;;;;;;;1157.63;999.90;;;8.10;99.90;;;;;;5048523;28;20469;-59
2023/01/11 05:48:57;;;;;;;1173.33;999.90;;;8.10;99.90;;;;;;5048456;28;20385;-61
2023/01/11 05:51:29;;;;;;;1173.10;999.90;;;8.10;99.90;;;;;;5047897;28;20389;-61
2023/01/11 05:53:55;;;;;;;1165.28;999.90;;;8.10;99.90;;;;;;5045330;28;20381;-61
2023/01/11 05:56:21;;;;;;;1150.60;999.90;;;8.10;99.90;;;;;;5043166;28;20394;-59
2023/01/11 05:58:48;;;;;;;1156.07;999.90;;;8.10;99.90;;;;;;5044295;28;20424;-62
2023/01/11 06:01:14;;;;;;;1141.83;999.90;;;8.20;99.90;;;;;;5043867;28;20468;-59
2023/01/11 06:03:40;;;;;;;1139.03;999.90;;;8.20;99.90;;;;;;5043444;28;20397;-58
2023/01/11 06:06:06;;;;;;;1138.65;999.90;;;8.20;99.90;;;;;;5040816;28;20424;-59
2023/01/11 06:08:32;;;;;;;1143.63;999.90;;;8.20;99.90;;;;;;5041094;28;20549;-56
2023/01/11 06:10:57;;;;;;;1149.07;999.90;;;8.20;99.90;;;;;;5044732;28;20476;-60
2023/01/11 06:13:27;;;;;;;1153.85;999.90;;;8.20;99.90;;;;;;5045100;28;20563;-60
2023/01/11 06:15:54;;;;;;;1133.18;999.90;;;8.20;99.90;;;;;;5046651;28;20389;-60
2023/01/11 06:18:20;;;;;;;1120.15;999.90;;;8.30;99.90;;;;;;5047691;28;20730;-60
2023/01/11 06:20:50;;;;;;;1146.28;999.90;;;8.30;99.90;;;;;;5048397;28;20533;-60
2023/01/11 06:23:16;;;;;;;1134.32;999.90;;;8.30;99.90;;;;;;5046937;28;20408;-60
2023/01/11 06:25:42;;;;;;;1160.10;999.90;;;8.30;99.90;;;;;;5049219;28;20394;-60
2023/01/11 06:28:08;;;;;;;1172.60;999.90;;;8.30;99.90;;;;;;5048077;28;20556;-59
2023/01/11 06:30:33;;;;;;;1156.00;999.90;;;8.30;99.90;;;;;;5047590;28;20672;-60
2023/01/11 06:33:05;;;;;;;1163.78;999.90;;;8.40;99.90;;;;;;5045688;28;20382;-60
2023/01/11 06:35:41;;;;;;;1167.68;999.90;;;8.40;99.90;;;;;;5045246;28;20386;-59
2023/01/11 06:38:09;;;;;;;1174.15;999.90;;;8.40;99.90;;;;;;5045174;28;20729;-60
2023/01/11 06:40:36;;;;;;;1159.73;999.90;;;8.40;99.90;;;;;;5042907;28;20389;-60
2023/01/11 06:43:02;;;;;;;1146.97;999.90;;;8.40;99.90;;;;;;5042481;28;20407;-62
2023/01/11 06:45:27;;;;;;;1156.10;999.90;;;8.40;99.90;;;;;;5044182;28;20447;-61
2023/01/11 06:47:53;;;;;;;1126.37;999.90;;;8.50;99.90;;;;;;5044011;28;20405;-60
2023/01/11 06:50:19;;;;;;;1134.83;999.90;;;8.50;99.90;;;;;;5043879;28;20651;-61
2023/01/11 06:53:00;;;;;;;1124.63;999.90;;;8.60;99.90;;;;;;5042546;28;20401;-61
2023/01/11 06:55:27;;;;;;;1147.47;999.90;;;8.50;99.90;;;;;;5042337;28;20396;-61
2023/01/11 06:57:53;;;;;;;1143.05;999.90;;;8.50;99.90;;;;;;5041965;28;20649;-60
2023/01/11 07:00:19;;;;;;;1131.33;999.90;;;8.60;99.90;;;;;;5039891;28;20447;-59
2023/01/11 07:02:45;;;;;;;1126.45;999.90;;;8.60;99.90;;;;;;5038549;28;20385;-60
2023/01/11 07:05:12;;;;;;;1111.63;999.90;;;8.60;99.90;;;;;;5039248;28;20474;-60
2023/01/11 07:07:39;;;;;;;1133.50;999.90;;;8.70;99.90;;;;;;5038602;28;20479;-59
2023/01/11 07:10:08;;;;;;;1125.07;999.90;;;8.70;99.90;;;;;;5038762;28;20381;-60
2023/01/11 07:12:34;;;;;;;1122.18;999.90;;;8.70;99.90;;;;;;5039403;28;20585;-59
2023/01/11 07:14:59;;;;;;;1116.97;999.90;;;8.80;99.90;;;;;;5038523;28;20382;-59
2023/01/11 07:17:25;;;;;;;1119.03;999.90;;;8.80;99.90;;;;;;5038003;28;20396;-61
2023/01/11 07:19:50;;;;;;;1128.90;999.90;;;8.80;99.90;;;;;;5038069;28;20393;-60
2023/01/11 07:22:16;;;;;;;1130.33;999.90;;;8.80;99.90;;;;;;5037734;28;20432;-60
2023/01/11 07:24:42;;;;;;;1112.00;999.90;;;8.80;99.90;;;;;;5035394;28;20562;-57
2023/01/11 07:27:07;;;;;;;1148.77;999.90;;;8.90;99.90;;;;;;5034827;28;20406;-60
2023/01/11 07:29:33;;;;;;;1179.80;999.90;;;8.90;99.90;;;;;;5033591;28;20676;-57
2023/01/11 07:31:58;;;;;;;1143.00;999.90;;;9.00;99.90;;;;;;5033754;28;20595;-59
2023/01/11 07:34:24;;;;;;;1117.10;999.90;;;9.00;99.90;;;;;;5035318;28;20567;-60
2023/01/11 07:36:50;;;;;;;1154.82;999.90;;;9.00;99.90;;;;;;5034489;28;20401;-59
2023/01/11 07:39:16;;;;;;;1130.00;999.90;;;9.00;99.90;;;;;;5033584;28;20670;-60
2023/01/11 07:44:25;;;;;;;1151.00;999.90;;;9.00;99.90;;;;;;5035590;28;20584;-60
2023/01/11 07:46:51;;;;;;;1120.47;999.90;;;9.10;99.90;;;;;;5033441;28;20707;-59
2023/01/11 07:49:16;;;;;;;1124.82;999.90;;;9.10;99.90;;;;;;5037832;28;20624;-60
2023/01/11 07:51:42;;;;;;;1161.47;999.90;;;9.10;99.90;;;;;;5037016;28;20661;-60
2023/01/11 07:54:07;;;;;;;1135.33;999.90;;;9.10;99.90;;;;;;5036601;28;20512;-60
2023/01/11 07:56:33;;;;;;;1114.43;999.90;;;9.10;99.90;;;;;;5033180;28;20381;-60
2023/01/11 07:58:59;;;;;;;1159.30;999.90;;;9.20;99.90;;;;;;5035355;28;20947;-58
2023/01/11 08:01:26;;;;;;;1143.35;999.90;;;9.20;99.90;;;;;;5035112;28;20393;-60
2023/01/11 08:03:52;;;;;;;1169.15;999.90;;;9.20;99.90;;;;;;5035209;28;20389;-60
2023/01/11 08:06:18;;;;;;;1163.13;999.90;;;9.20;99.90;;;;;;5036568;28;21100;-58
2023/01/11 08:08:44;;;;;;;1164.23;999.90;;;9.20;99.90;;;;;;5037668;28;20393;-60
2023/01/11 08:16:38;;;;;;;1132.40;999.90;;;9.20;99.90;;;;;;5036943;28;20415;-60
2023/01/11 08:19:04;;;;;;;1166.73;999.90;;;9.20;99.90;;;;;;5038639;28;20652;-60
2023/01/11 08:21:30;;;;;;;1129.37;999.90;;;9.20;99.90;;;;;;5037536;28;20781;-60
2023/01/11 08:23:57;;;;;;;1188.73;999.90;;;9.20;99.90;;;;;;5036744;28;20595;-60
2023/01/11 08:26:26;;;;;;;1169.05;999.90;;;9.20;99.90;;;;;;5035695;28;20401;-61
2023/01/11 08:28:53;;;;;;;1182.13;999.90;;;9.30;99.90;;;;;;5033278;28;20393;-61
2023/01/11 08:31:20;;;;;;;1184.78;999.90;;;9.30;99.90;;;;;;5031160;28;20612;-61
2023/01/11 08:33:50;;;;;;;1165.80;999.90;;;9.30;99.90;;;;;;5031403;28;20449;-58
2023/01/11 08:36:15;;;;;;;1155.70;999.90;;;9.30;99.90;;;;;;5031662;28;20397;-59
2023/01/11 08:38:41;;;;;;;1148.97;999.90;;;9.30;99.90;;;;;;5032126;28;20629;-60
2023/01/11 08:41:09;;;;;;;1138.33;999.90;;;9.30;99.90;;;;;;5031877;28;20608;-61
2023/01/11 08:43:39;;;;;;;1177.47;999.90;;;9.30;99.90;;;;;;5033146;28;20783;-60
2023/01/11 08:46:06;;;;;;;1194.43;999.90;;;9.30;99.90;;;;;;5034375;28;20399;-60
2023/01/11 08:48:32;;;;;;;1205.65;999.90;;;9.30;99.90;;;;;;5031190;28;20451;-56
2023/01/11 08:50:58;;;;;;;1195.57;999.90;;;9.30;99.90;;;;;;5031245;28;20629;-60
2023/01/11 08:53:23;;;;;;;1207.25;999.90;;;9.30;99.90;;;;;;5032301;28;20381;-60
2023/01/11 08:55:51;;;;;;;1193.35;999.90;;;9.30;99.90;;;;;;5033147;28;20514;-60
2023/01/11 08:58:18;;;;;;;1183.13;999.90;;;9.30;99.90;;;;;;5032256;28;20656;-60
2023/01/11 09:00:44;;;;;;;1191.50;999.90;;;9.40;99.90;;;;;;5031480;28;20628;-59
2023/01/11 09:03:11;;;;;;;1183.25;999.90;;;9.30;99.90;;;;;;5034245;28;20782;-60
2023/01/11 09:05:37;;;;;;;1190.50;999.90;;;9.40;99.90;;;;;;5032031;28;20427;-60
2023/01/11 09:08:03;;;;;;;1183.88;999.90;;;9.40;99.90;;;;;;5033745;28;20505;-60
2023/01/11 09:10:29;;;;;;;1175.18;999.90;;;9.40;99.90;;;;;;5034357;28;20645;-60
2023/01/11 09:12:56;;;;;;;1181.82;999.90;;;9.40;99.90;;;;;;5033926;28;20535;-60
2023/01/11 09:15:22;;;;;;;1162.53;999.90;;;9.40;99.90;;;;;;5032602;28;20567;-60
2023/01/11 09:17:49;;;;;;;1171.13;999.90;;;9.40;99.90;;;;;;5034125;28;20602;-60
2023/01/11 09:20:16;;;;;;;1154.93;999.90;;;9.40;99.90;;;;;;5035837;28;20856;-60
2023/01/11 09:22:52;;;;;;;1149.97;999.90;;;9.40;99.90;;;;;;5034734;28;20703;-58
2023/01/11 09:25:19;;;;;;;1124.72;999.90;;;9.40;99.90;;;;;;5036193;28;20413;-60
2023/01/11 09:27:45;;;;;;;1125.83;999.90;;;9.40;99.90;;;;;;5036274;28;20496;-60
2023/01/11 09:30:13;;;;;;;1120.38;999.90;;;9.40;99.90;;;;;;5035675;28;20447;-59
2023/01/11 09:32:39;;;;;;;1132.75;999.90;;;9.40;99.90;;;;;;5035755;28;20678;-64
2023/01/11 09:35:06;;;;;;;1123.40;999.90;;;9.40;99.90;;;;;;5038469;28;20740;-60
2023/01/11 09:37:32;;;;;;;1143.68;999.90;;;9.40;99.90;;;;;;5041170;28;20717;-60
2023/01/11 09:39:58;;;;;;;1164.47;999.90;;;9.40;99.90;;;;;;5044166;28;20813;-61
2023/01/11 09:42:31;;;;;;;1144.68;999.90;;;9.40;99.90;;;;;;5043511;28;20410;-60
2023/01/11 09:45:17;;;;;;;1134.65;999.90;;;9.30;99.90;;;;;;5045294;28;20689;-61
2023/01/11 09:47:46;;;;;;;1151.10;999.90;;;9.30;99.90;;;;;;5044756;28;20401;-59
2023/01/11 09:50:16;;;;;;;1140.40;999.90;;;9.40;99.90;;;;;;5045556;28;20389;-60
2023/01/11 09:52:46;;;;;;;1124.63;999.90;;;9.40;99.90;;;;;;5046453;28;20508;-59
2023/01/11 09:55:18;;;;;;;1130.45;999.90;;;9.40;99.90;;;;;;5046281;28;20385;-60
2023/01/11 09:58:01;;;;;;;1133.13;999.90;;;9.40;99.90;;;;;;5046377;28;20400;-61
2023/01/11 10:00:58;;;;;;;1113.45;999.90;;;9.40;99.90;;;;;;5047402;28;20396;-60
2023/01/11 10:03:32;;;;;;;1110.53;999.90;;;9.40;99.90;;;;;;5045728;28;20609;-54
2023/01/11 10:06:13;;;;;;;1134.47;999.90;;;9.40;99.90;;;;;;5047615;28;20436;-54
2023/01/11 10:08:46;;;;;;;1143.18;999.90;;;9.50;99.90;;;;;;5042460;28;20390;-61
2023/01/11 10:11:12;;;;;;;1098.88;999.90;;;9.50;99.90;;;;;;5040383;28;20673;-61
2023/01/11 10:13:53;;;;;;;1088.17;999.57;;;9.60;99.90;;;;;;5041494;28;20789;-61
2023/01/11 10:16:50;;;;;;;1074.00;988.03;;;9.50;99.90;;;;;;5036999;28;20385;-61
2023/01/11 10:19:46;;;;;;;1093.60;999.90;;;9.50;99.90;;;;;;5032784;28;20708;-58
2023/01/11 10:22:18;;;;;;;1078.80;990.80;;;9.50;99.90;;;;;;5030777;28;20479;-58
2023/01/11 10:24:55;;;;;;;1083.03;996.47;;;9.50;99.90;;;;;;5032857;28;20381;-60
2023/01/11 10:27:48;;;;;;;1082.90;996.88;;;9.50;99.90;;;;;;5037696;28;20496;-60
2023/01/11 10:30:36;;;;;;;1084.45;999.42;;;9.60;99.90;;;;;;5024928;28;20677;-60
2023/01/11 10:42:24;;;;;;;1079.00;996.40;;;9.60;99.90;;;;;;5041395;28;20428;-59
2023/01/11 10:44:58;;;;;;;1082.38;998.58;;;9.60;99.90;;;;;;5038963;28;20455;-60
2023/01/11 10:47:29;;;;;;;1108.53;999.90;;;9.60;99.90;;;;;;5040759;28;20455;-59
2023/01/11 10:50:18;;;;;;;1090.13;999.90;;;9.60;99.90;;;;;;5041713;28;20428;-60
2023/01/11 10:53:11;;;;;;;1112.93;999.90;;;9.60;99.90;;;;;;5043115;28;20397;-60
2023/01/11 10:56:00;;;;;;;1184.50;999.90;;;9.60;99.90;;;;;;5043209;28;20468;-60
2023/01/11 10:58:26;;;;;;;1229.95;999.90;;;9.60;99.90;;;;;;5044960;28;20432;-59
2023/01/11 11:01:15;;;;;;;1212.23;999.90;;;9.60;99.90;;;;;;5046726;28;20475;-60
2023/01/11 11:04:08;;;;;;;1230.90;999.90;;;9.60;99.90;;;;;;5047525;28;20389;-60
2023/01/11 11:06:50;;;;;;;1256.32;999.90;;;9.60;99.90;;;;;;5044605;28;20413;-58
2023/01/11 11:09:16;;;;;;;1261.78;999.90;;;9.60;99.90;;;;;;5048027;28;20377;-60
2023/01/11 11:11:53;;;;;;;1269.93;999.90;;;9.70;99.90;;;;;;5046796;28;20442;-60
2023/01/11 11:14:48;;;;;;;1321.90;999.90;;;9.70;99.90;;;;;;5047681;28;20500;-60
2023/01/11 11:17:32;;;;;;;1307.25;999.90;;;9.70;99.90;;;;;;5047434;28;20669;-60
2023/01/11 11:19:58;;;;;;;1290.57;999.90;;;9.70;99.90;;;;;;5047718;28;20387;-60
2023/01/11 11:22:24;;;;;;;1265.22;999.90;;;9.70;99.90;;;;;;5046562;28;20420;-60
2023/01/11 11:25:06;;;;;;;1293.72;999.90;;;9.70;99.90;;;;;;5043907;28;20397;-59
2023/01/11 11:27:39;;;;;;;1288.65;999.90;;;9.70;99.90;;;;;;5046054;28;20402;-58
2023/01/11 11:30:08;;;;;;;1265.28;999.90;;;9.70;99.90;;;;;;5046972;28;20382;-59
2023/01/11 11:32:37;;;;;;;1281.70;999.90;;;9.70;99.90;;;;;;5046166;28;20880;-59
2023/01/11 11:35:04;;;;;;;1286.93;999.90;;;9.70;99.90;;;;;;5046937;28;20385;-60
2023/01/11 11:37:35;;;;;;;1257.10;999.90;;;9.80;99.90;;;;;;5045363;28;20439;-60
2023/01/11 11:40:02;;;;;;;1272.68;999.90;;;9.80;99.90;;;;;;5045556;28;20390;-60
2023/01/11 11:42:29;;;;;;;1251.03;999.90;;;9.80;99.90;;;;;;5044511;28;20421;-60
2023/01/11 11:45:07;;;;;;;1260.80;999.90;;;9.80;99.90;;;;;;5045269;28;20393;-60
2023/01/11 11:47:33;;;;;;;1257.70;999.90;;;9.90;99.90;;;;;;5044994;28;20402;-61
2023/01/11 11:50:17;;;;;;;1244.20;999.90;;;9.90;99.90;;;;;;5046273;28;20474;-61
2023/01/11 11:52:50;;;;;;;1221.78;999.90;;;9.90;99.90;;;;;;5045105;28;20433;-59
2023/01/11 11:55:18;;;;;;;1248.30;999.90;;;9.90;99.90;;;;;;5045129;28;20477;-61
2023/01/11 11:57:44;;;;;;;1192.97;999.90;;;9.90;99.90;;;;;;5048237;28;20865;-60
2023/01/11 12:00:41;;;;;;;1150.30;999.90;;;9.90;99.90;;;;;;5047999;28;20864;-61
2023/01/11 12:03:21;;;;;;;1146.00;999.90;;;9.90;99.90;;;;;;5044191;28;20390;-61
2023/01/11 12:05:54;;;;;;;1137.28;999.90;;;9.90;99.90;;;;;;5043705;28;20512;-58
2023/01/11 12:08:23;;;;;;;1135.35;999.90;;;9.80;99.90;;;;;;5043177;28;20931;-60
2023/01/11 12:10:54;;;;;;;1145.90;999.90;;;9.80;99.90;;;;;;5040790;28;20385;-61
2023/01/11 12:13:31;;;;;;;1070.95;980.90;;;9.80;99.90;;;;;;5037269;28;20457;-60
2023/01/11 12:15:59;;;;;;;1130.13;999.90;;;9.80;99.90;;;;;;5038850;28;20415;-61
2023/01/11 12:18:37;;;;;;;1122.40;999.90;;;9.90;99.90;;;;;;5039587;28;20468;-61
2023/01/11 12:21:20;;;;;;;1091.55;999.25;;;9.90;99.90;;;;;;5040023;28;20476;-60
2023/01/11 12:23:47;;;;;;;1090.28;998.08;;;9.90;99.90;;;;;;5040688;28;20393;-60
2023/01/11 12:26:50;;;;;;;1069.10;979.22;;;9.90;99.90;;;;;;5042515;28;20413;-61
2023/01/11 12:29:50;;;;;;;1093.77;999.23;;;9.90;99.90;;;;;;5042612;28;20438;-60
2023/01/11 12:32:34;;;;;;;1073.22;983.97;;;9.90;99.90;;;;;;5032318;28;20404;-61
2023/01/11 12:35:32;;;;;;;1133.43;999.90;;;9.90;99.90;;;;;;5035903;28;20381;-61
2023/01/11 12:38:29;;;;;;;1196.57;999.90;;;9.80;99.90;;;;;;5036415;28;20412;-61
2023/01/11 12:41:12;;;;;;;1249.05;999.90;;;9.80;99.90;;;;;;5036373;28;20408;-60
2023/01/11 12:44:03;;;;;;;1238.47;999.90;;;9.90;99.90;;;;;;5038614;28;20456;-60
2023/01/11 12:47:03;;;;;;;1241.30;999.90;;;9.80;99.90;;;;;;5039722;28;20479;-61
2023/01/11 12:49:38;;;;;;;1235.40;999.90;;;9.80;99.90;;;;;;5041301;28;20746;-60
2023/01/11 12:52:21;;;;;;;1256.67;999.90;;;9.90;99.90;;;;;;5042578;28;20396;-62
2023/01/11 12:54:50;;;;;;;1252.30;999.90;;;9.90;99.90;;;;;;5045141;28;20428;-62
2023/01/11 12:58:04;;;;;;;1237.68;999.90;;;10.00;99.90;;;;;;5042796;28;20385;-60
2023/01/11 13:01:02;;;;;;;1206.05;999.90;;;10.00;99.90;;;;;;5041587;28;20377;-60
2023/01/11 13:03:59;;;;;;;1091.20;999.33;;;10.10;99.90;;;;;;5037916;28;20393;-60